Summary for RAINWISE1

Rainwise Factory, Bar Harbor, ME 04609
Join the PWSweather.com Network
View data in metric units
Latest Conditions
Updated 2:55:00 AM EDT Wednesday, Apr 23, 2014
Data Currently Today's Max Today's Min Today's Average
Temperature 46.2°F7.9°C 47.1°F8.4°C 46.2°F7.9°C 46.5°F8.1°C
Dew Point 45.8°F7.7°C 45.9°F7.7°C 44.8°F7.1°C 45.5°F7.5°C
Winds 3.7 mph S6.0 kmh S 6.6 mph SSW10.6 kmh SSW 3.4 mph5.5 kmh 4.8 mph7.7 kmh
Wind Gusts 6.0 mph9.7 kmh 10.0 mph16.1 kmh 4.9 mph7.9 kmh 7.4 mph11.9 kmh
Humidity 99% 99% 94% 97%
Pressure 29.52 in999.7 mb 29.59 in1002.0 mb 29.52 in999.7 mb 29.55 in1000.7 mb
Precipitation 0.01 in0.3 mm - - 0.00 in0.0 mm
Trends
 
Station Profile
Rainwise FactoryBar Harbor, ME 04609

Lat: 44.39, Lon: -68.208
Elevation: 29
Station Type: Rainwise MK-III

Detailed Summary for Wed, Apr 23, 2014
Hour (EDT) Temperature Dew Point Humidity Winds Wind Gusts Pressure Precip Precip Rate Daily Precip Total
02:55 AM 46.2°F7.9°C 45.8°F7.7°C 99% 3.7 mph S6.0 kmh S 6.0 mph9.7 kmh 29.52 in999.7 mb 0.00 in0.0 mm 0.00 in/hr0.0 mm/hr 0.01 in0.3 mm
02:50 AM 46.2°F7.9°C 45.8°F7.7°C 99% 4.4 mph S7.1 kmh S 6.7 mph10.8 kmh 29.52 in999.7 mb 0.00 in0.0 mm 0.00 in/hr0.0 mm/hr 0.01 in0.3 mm
02:45 AM 46.2°F7.9°C 45.9°F7.7°C 99% 4.6 mph SSW7.4 kmh SSW 7.9 mph12.7 kmh 29.53 in1000.0 mb 0.00 in0.0 mm 0.00 in/hr0.0 mm/hr 0.01 in0.3 mm
02:40 AM 46.3°F7.9°C 45.9°F7.7°C 99% 5.4 mph SSW8.7 kmh SSW 8.4 mph13.5 kmh 29.53 in1000.0 mb 0.00 in0.0 mm 0.00 in/hr0.0 mm/hr 0.01 in0.3 mm
02:35 AM 46.3°F7.9°C 45.9°F7.7°C 99% 6.4 mph SSW10.3 kmh SSW 9.0 mph14.5 kmh 29.53 in1000.0 mb 0.00 in0.0 mm 0.00 in/hr0.0 mm/hr 0.01 in0.3 mm
02:30 AM 46.3°F7.9°C 45.9°F7.7°C 99% 6.6 mph SSW10.6 kmh SSW 10.0 mph16.1 kmh 29.53 in1000.0 mb 0.00 in0.0 mm 0.00 in/hr0.0 mm/hr 0.01 in0.3 mm
02:25 AM 46.3°F7.9°C 45.9°F7.7°C 99% 4.7 mph SSW7.6 kmh SSW 6.0 mph9.7 kmh 29.54 in1000.3 mb 0.00 in0.0 mm 0.00 in/hr0.0 mm/hr 0.01 in0.3 mm
02:20 AM 46.3°F7.9°C 45.9°F7.7°C 99% 5.4 mph S8.7 kmh S 7.5 mph12.1 kmh 29.54 in1000.3 mb 0.00 in0.0 mm 0.00 in/hr0.0 mm/hr 0.01 in0.3 mm
02:15 AM 46.3°F7.9°C 45.9°F7.7°C 99% 4.7 mph S7.6 kmh S 7.9 mph12.7 kmh 29.54 in1000.3 mb 0.00 in0.0 mm 0.00 in/hr0.0 mm/hr 0.01 in0.3 mm
02:10 AM 46.2°F7.9°C 45.8°F7.7°C 99% 4.4 mph S7.1 kmh S 7.2 mph11.6 kmh 29.54 in1000.3 mb 0.00 in0.0 mm 0.00 in/hr0.0 mm/hr 0.01 in0.3 mm
02:05 AM 46.2°F7.9°C 45.8°F7.7°C 99% 4.8 mph S7.7 kmh S 6.2 mph10.0 kmh 29.54 in1000.3 mb 0.00 in0.0 mm 0.00 in/hr0.0 mm/hr 0.01 in0.3 mm
02:00 AM 46.2°F7.9°C 45.5°F7.5°C 98% 6.4 mph SSW10.3 kmh SSW 9.5 mph15.3 kmh 29.54 in1000.3 mb 0.00 in0.0 mm 0.00 in/hr0.0 mm/hr 0.01 in0.3 mm
01:55 AM 46.2°F7.9°C 45.5°F7.5°C 98% 6.1 mph SSW9.8 kmh SSW 9.0 mph14.5 kmh 29.54 in1000.3 mb 0.00 in0.0 mm 0.00 in/hr0.0 mm/hr 0.01 in0.3 mm
01:50 AM 46.2°F7.9°C 45.5°F7.5°C 98% 5.5 mph S8.9 kmh S 8.1 mph13.0 kmh 29.55 in1000.7 mb 0.00 in0.0 mm 0.00 in/hr0.0 mm/hr 0.01 in0.3 mm
01:45 AM 46.3°F7.9°C 45.6°F7.6°C 98% 4.9 mph S7.9 kmh S 9.0 mph14.5 kmh 29.54 in1000.3 mb 0.00 in0.0 mm 0.00 in/hr0.0 mm/hr 0.01 in0.3 mm
01:40 AM 46.3°F7.9°C 45.6°F7.6°C 98% 4.0 mph S6.4 kmh S 6.2 mph10.0 kmh 29.55 in1000.7 mb 0.00 in0.0 mm 0.00 in/hr0.0 mm/hr 0.01 in0.3 mm
01:35 AM 46.3°F7.9°C 45.6°F7.6°C 98% 5.5 mph SSE8.9 kmh SSE 8.1 mph13.0 kmh 29.55 in1000.7 mb 0.00 in0.0 mm 0.00 in/hr0.0 mm/hr 0.01 in0.3 mm
01:30 AM 46.3°F7.9°C 45.6°F7.6°C 98% 4.9 mph SSE7.9 kmh SSE 7.2 mph11.6 kmh 29.55 in1000.7 mb 0.00 in0.0 mm 0.00 in/hr0.0 mm/hr 0.01 in0.3 mm
01:25 AM 46.5°F8.1°C 45.8°F7.7°C 98% 4.9 mph S7.9 kmh S 8.9 mph14.3 kmh 29.55 in1000.7 mb 0.00 in0.0 mm 0.00 in/hr0.0 mm/hr 0.01 in0.3 mm
01:20 AM 46.5°F8.1°C 45.4°F7.4°C 97% 4.1 mph SSE6.6 kmh SSE 7.0 mph11.3 kmh 29.56 in1001.0 mb 0.00 in0.0 mm 0.00 in/hr0.0 mm/hr 0.01 in0.3 mm
01:15 AM 46.6°F8.1°C 45.5°F7.5°C 97% 3.8 mph S6.1 kmh S 5.5 mph8.9 kmh 29.56 in1001.0 mb 0.00 in0.0 mm 0.00 in/hr0.0 mm/hr 0.01 in0.3 mm
01:10 AM 46.7°F8.2°C 45.6°F7.6°C 97% 4.3 mph SSE6.9 kmh SSE 6.5 mph10.5 kmh 29.56 in1001.0 mb 0.00 in0.0 mm 0.00 in/hr0.0 mm/hr 0.01 in0.3 mm
01:05 AM 46.7°F8.2°C 45.6°F7.6°C 97% 3.6 mph SSE5.8 kmh SSE 5.7 mph9.2 kmh 29.56 in1001.0 mb 0.00 in0.0 mm 0.00 in/hr0.0 mm/hr 0.01 in0.3 mm
01:00 AM 46.7°F8.2°C 45.6°F7.6°C 97% 3.4 mph S5.5 kmh S 4.9 mph7.9 kmh 29.56 in1001.0 mb 0.00 in0.0 mm 0.00 in/hr0.0 mm/hr 0.00 in0.0 mm
12:55 AM 46.7°F8.2°C 45.3°F7.4°C 96% 3.7 mph S6.0 kmh S 5.4 mph8.7 kmh 29.57 in1001.4 mb 0.00 in0.0 mm 0.00 in/hr0.0 mm/hr 0.00 in0.0 mm
12:50 AM 46.7°F8.2°C 45.3°F7.4°C 96% 3.9 mph S6.3 kmh S 6.2 mph10.0 kmh 29.57 in1001.4 mb 0.00 in0.0 mm 0.00 in/hr0.0 mm/hr 0.00 in0.0 mm
12:45 AM 46.7°F8.2°C 45.3°F7.4°C 96% 5.0 mph S8.0 kmh S 7.9 mph12.7 kmh 29.57 in1001.4 mb 0.00 in0.0 mm 0.00 in/hr0.0 mm/hr 0.00 in0.0 mm
12:40 AM 46.8°F8.2°C 45.4°F7.4°C 96% 5.5 mph S8.9 kmh S 7.9 mph12.7 kmh 29.57 in1001.4 mb 0.00 in0.0 mm 0.00 in/hr0.0 mm/hr 0.00 in0.0 mm
12:35 AM 46.8°F8.2°C 45.4°F7.4°C 96% 5.2 mph S8.4 kmh S 8.1 mph13.0 kmh 29.57 in1001.4 mb 0.00 in0.0 mm 0.00 in/hr0.0 mm/hr 0.00 in0.0 mm
12:30 AM 47.0°F8.3°C 45.2°F7.3°C 95% 4.9 mph S7.9 kmh S 7.0 mph11.3 kmh 29.58 in1001.7 mb 0.00 in0.0 mm 0.00 in/hr0.0 mm/hr 0.00 in0.0 mm
12:25 AM 47.0°F8.3°C 45.2°F7.3°C 95% 4.6 mph SSE7.4 kmh SSE 6.0 mph9.7 kmh 29.58 in1001.7 mb 0.00 in0.0 mm 0.00 in/hr0.0 mm/hr 0.00 in0.0 mm
12:20 AM 47.1°F8.4°C 45.3°F7.4°C 95% 4.6 mph S7.4 kmh S 7.2 mph11.6 kmh 29.58 in1001.7 mb 0.00 in0.0 mm 0.00 in/hr0.0 mm/hr 0.00 in0.0 mm
12:15 AM 47.1°F8.4°C 45.3°F7.4°C 95% 4.8 mph SSE7.7 kmh SSE 7.0 mph11.3 kmh 29.58 in1001.7 mb 0.00 in0.0 mm 0.00 in/hr0.0 mm/hr 0.00 in0.0 mm
12:10 AM 47.0°F8.3°C 45.2°F7.3°C 95% 5.2 mph S8.4 kmh S 8.5 mph13.7 kmh 29.58 in1001.7 mb 0.00 in0.0 mm 0.00 in/hr0.0 mm/hr 0.00 in0.0 mm
12:05 AM 47.0°F8.3°C 44.8°F7.1°C 94% 5.6 mph S9.0 kmh S 8.4 mph13.5 kmh 29.59 in1002.0 mb 0.00 in0.0 mm 0.00 in/hr0.0 mm/hr 0.00 in0.0 mm
12:00 AM 47.1°F8.4°C 44.9°F7.2°C 94% 5.1 mph S8.2 kmh S 8.4 mph13.5 kmh 29.59 in1002.0 mb 0.00 in0.0 mm 0.00 in/hr0.0 mm/hr 0.00 in0.0 mm
WeatherForYou.com, LLC is not responsible for any damages or problems caused by this service. Current weather conditions are obtained from the closest station including government and personal stations which may have varying degrees of accuracy. Weather forecasts are derived from the NOAA NDFD and obtained through HAMweather's Aeris Weather API. Like all things, this site belongs to Jesus Christ... He just trusts me to maintain it. If you have any questions or comments email webmaster@weatherforyou.com

Copyright © 2014, WeatherForYou.com LLC. All rights reserved.